| time (UTC) | temp F | wind direction | speed knots | gust knots | rain 1hr in | rain 24hr in | rain mn in | humidity % | barometer mb |
| 20260510040021 | 89 | 25 | 0.0 | 0.9 | 0.00 | 0.00 | 0.00 | 15 | 1003.8 |
| 20260510035019 | 89 | 331 | 0.0 | 0.0 | 0.00 | 0.00 | 0.00 | 15 | 1003.7 |
| 20260510034038 | 89 | 30 | 0.0 | 0.0 | 0.00 | 0.00 | 0.00 | 15 | 1003.5 |
| 20260510033040 | 89 | 48 | 0.0 | 0.0 | 0.00 | 0.00 | 0.00 | 16 | 1003.4 |
| 20260510032030 | 90 | 0.0 | 0.0 | 0.00 | 0.00 | 0.00 | 16 | 1003.2 | |
| 20260510031044 | 90 | 0.0 | 0.0 | 0.00 | 0.00 | 0.00 | 16 | 1003.0 | |
| 20260510030039 | 91 | 0.0 | 0.0 | 0.00 | 0.00 | 0.00 | 18 | 1002.8 | |
| 20260510025050 | 91 | 0.0 | 0.0 | 0.00 | 0.00 | 0.00 | 17 | 1002.7 | |
| 20260510024027 | 92 | 0.0 | 0.0 | 0.00 | 0.00 | 0.00 | 16 | 1002.6 | |
| 20260510023025 | 93 | 23 | 0.0 | 0.0 | 0.00 | 0.00 | 0.00 | 11 | 1002.5 |
| 20260510022040 | 93 | 2 | 0.9 | 0.9 | 0.00 | 0.00 | 0.00 | 10 | 1002.5 |
| 20260510021022 | 94 | 358 | 0.9 | 0.9 | 0.00 | 0.00 | 0.00 | 10 | 1002.4 |
| 20260510020029 | 95 | 345 | 0.9 | 0.9 | 0.00 | 0.00 | 0.00 | 10 | 1002.4 |
| 20260510015034 | 95 | 6 | 0.9 | 0.9 | 0.00 | 0.00 | 0.00 | 10 | 1002.2 |
| 20260510014022 | 96 | 313 | 0.9 | 0.9 | 0.00 | 0.00 | 0.00 | 10 | 1002.2 |
| 20260510013035 | 96 | 334 | 0.9 | 0.9 | 0.00 | 0.00 | 0.00 | 9 | 1002.2 |
| 20260510012019 | 97 | 334 | 0.9 | 0.9 | 0.00 | 0.00 | 0.00 | 9 | 1002.2 |
| 20260510011046 | 97 | 244 | 0.9 | 0.9 | 0.00 | 0.00 | 0.00 | 9 | 1002.2 |
| 20260510010032 | 97 | 329 | 1.7 | 1.7 | 0.00 | 0.00 | 0.00 | 9 | 1002.2 |
| 20260510005026 | 98 | 276 | 0.9 | 0.9 | 0.00 | 0.00 | 0.00 | 9 | 1002.2 |
| 20260510004024 | 98 | 281 | 0.9 | 1.7 | 0.00 | 0.00 | 0.00 | 9 | 1002.2 |
| 20260510003022 | 98 | 286 | 1.7 | 1.7 | 0.00 | 0.00 | 0.00 | 9 | 1002.3 |
| 20260510002022 | 99 | 282 | 1.7 | 1.7 | 0.00 | 0.00 | 0.00 | 9 | 1002.3 |
| 20260510001028 | 99 | 281 | 1.7 | 1.7 | 0.00 | 0.00 | 0.00 | 9 | 1002.4 |
| 20260510000036 | 99 | 283 | 1.7 | 1.7 | 0.00 | 0.00 | 0.00 | 9 | 1002.5 |
| 20260509235031 | 99 | 309 | 2.6 | 2.6 | 0.00 | 0.00 | 0.00 | 9 | 1002.6 |
| 20260509234032 | 99 | 335 | 1.7 | 1.7 | 0.00 | 0.00 | 0.00 | 9 | 1002.6 |
| 20260509233019 | 100 | 307 | 1.7 | 1.7 | 0.00 | 0.00 | 0.00 | 9 | 1002.7 |
| 20260509232026 | 100 | 273 | 1.7 | 1.7 | 0.00 | 0.00 | 0.00 | 9 | 1002.8 |
| 20260509231031 | 100 | 318 | 2.6 | 2.6 | 0.00 | 0.00 | 0.00 | 9 | 1002.8 |
| 20260509230037 | 100 | 256 | 1.7 | 1.7 | 0.00 | 0.00 | 0.00 | 9 | 1003.0 |
| 20260509225045 | 100 | 277 | 1.7 | 1.7 | 0.00 | 0.00 | 0.00 | 9 | 1003.0 |
| 20260509224043 | 100 | 276 | 1.7 | 1.7 | 0.00 | 0.00 | 0.00 | 9 | 1003.3 |
| 20260509223022 | 101 | 285 | 2.6 | 2.6 | 0.00 | 0.00 | 0.00 | 9 | 1003.3 |
| 20260509222028 | 100 | 327 | 1.7 | 1.7 | 0.00 | 0.00 | 0.00 | 10 | 1003.4 |
| 20260509221025 | 101 | 16 | 1.7 | 1.7 | 0.00 | 0.00 | 0.00 | 10 | 1003.5 |
| 20260509220034 | 101 | 253 | 2.6 | 2.6 | 0.00 | 0.00 | 0.00 | 10 | 1003.7 |
| 20260509215033 | 100 | 301 | 1.7 | 1.7 | 0.00 | 0.00 | 0.00 | 10 | 1003.8 |
| 20260509214019 | 100 | 272 | 1.7 | 2.6 | 0.00 | 0.00 | 0.00 | 10 | 1004.0 |
| 20260509213029 | 100 | 260 | 1.7 | 1.7 | 0.00 | 0.00 | 0.00 | 9 | 1004.0 |
| 20260509212023 | 100 | 228 | 2.6 | 2.6 | 0.00 | 0.00 | 0.00 | 10 | 1004.2 |
| 20260509211025 | 101 | 243 | 1.7 | 1.7 | 0.00 | 0.00 | 0.00 | 10 | 1004.4 |
| 20260509210025 | 101 | 266 | 1.7 | 1.7 | 0.00 | 0.00 | 0.00 | 10 | 1004.6 |
| 20260509205022 | 101 | 216 | 1.7 | 1.7 | 0.00 | 0.00 | 0.00 | 10 | 1004.8 |
| 20260509204022 | 100 | 278 | 1.7 | 1.7 | 0.00 | 0.00 | 0.00 | 10 | |
| 20260509203049 | 100 | 267 | 1.7 | 1.7 | 0.00 | 0.00 | 0.00 | 10 | 1005.1 |
| 20260509202034 | 100 | 254 | 1.7 | 2.6 | 0.00 | 0.00 | 0.00 | 10 | 1005.3 |
| 20260509201042 | 100 | 327 | 2.6 | 2.6 | 0.00 | 0.00 | 0.00 | 12 | 1005.4 |
| 20260509200046 | 100 | 290 | 1.7 | 1.7 | 0.00 | 0.00 | 0.00 | 11 | 1005.6 |
| 20260509195019 | 99 | 268 | 1.7 | 2.6 | 0.00 | 0.00 | 0.00 | 12 | 1005.6 |
| 20260509194027 | 99 | 273 | 2.6 | 2.6 | 0.00 | 0.00 | 0.00 | 12 | 1005.7 |
| 20260509193024 | 99 | 279 | 1.7 | 1.7 | 0.00 | 0.00 | 0.00 | 12 | 1005.8 |
| 20260509192038 | 99 | 281 | 1.7 | 1.7 | 0.00 | 0.00 | 0.00 | 12 | 1005.9 |
| 20260509191045 | 98 | 279 | 1.7 | 1.7 | 0.00 | 0.00 | 0.00 | 12 | |
| 20260509190042 | 98 | 305 | 1.7 | 1.7 | 0.00 | 0.00 | 0.00 | 13 | 1006.3 |
| 20260509185103 | 97 | 343 | 1.7 | 1.7 | 0.00 | 0.00 | 0.00 | 13 | 1006.4 |
| 20260509184029 | 97 | 290 | 1.7 | 1.7 | 0.00 | 0.00 | 0.00 | 13 | |
| 20260509183041 | 96 | 276 | 0.9 | 0.9 | 0.00 | 0.00 | 0.00 | 14 | 1006.7 |
| 20260509182035 | 96 | 282 | 0.9 | 0.9 | 0.00 | 0.00 | 0.00 | 14 | 1006.8 |
| 20260509181053 | 95 | 277 | 1.7 | 1.7 | 0.00 | 0.00 | 0.00 | 15 | 1006.9 |
| 20260509180019 | 94 | 290 | 0.9 | 0.9 | 0.00 | 0.00 | 0.00 | 15 | 1007.0 |
| 20260509175033 | 93 | 245 | 0.9 | 0.9 | 0.00 | 0.00 | 0.00 | 15 | 1007.1 |
| 20260509174053 | 93 | 217 | 1.7 | 1.7 | 0.00 | 0.00 | 0.00 | 16 | 1007.1 |
| 20260509173025 | 93 | 294 | 0.9 | 0.9 | 0.00 | 0.00 | 0.00 | 16 | 1007.2 |
| 20260509172022 | 92 | 171 | 0.9 | 0.9 | 0.00 | 0.00 | 0.00 | 18 | 1007.2 |
| 20260509171020 | 91 | 307 | 0.9 | 0.9 | 0.00 | 0.00 | 0.00 | 18 | 1007.3 |
| 20260509170043 | 91 | 221 | 0.9 | 0.9 | 0.00 | 0.00 | 0.00 | 18 | 1007.4 |
| 20260509165029 | 90 | 307 | 0.9 | 0.9 | 0.00 | 0.00 | 0.00 | 19 | 1007.4 |
| 20260509164036 | 89 | 264 | 0.9 | 0.9 | 0.00 | 0.00 | 0.00 | 20 | 1007.4 |
| 20260509163027 | 88 | 212 | 0.9 | 0.9 | 0.00 | 0.00 | 0.00 | 20 | 1007.5 |
| 20260509162046 | 87 | 239 | 0.9 | 0.9 | 0.00 | 0.00 | 0.00 | 21 | 1007.5 |
| 20260509161019 | 86 | 174 | 0.9 | 0.9 | 0.00 | 0.00 | 0.00 | 21 | 1007.5 |
| 20260509160027 | 85 | 279 | 0.0 | 0.9 | 0.00 | 0.00 | 0.00 | 22 | 1007.6 |
| 20260509155031 | 84 | 224 | 0.9 | 0.9 | 0.00 | 0.00 | 0.00 | 22 | 1007.6 |
| 20260509154023 | 84 | 171 | 0.0 | 0.9 | 0.00 | 0.00 | 0.00 | 23 | 1007.6 |
| 20260509153039 | 83 | 174 | 0.0 | 0.9 | 0.00 | 0.00 | 0.00 | 23 | 1007.6 |
| 20260509152101 | 82 | 186 | 0.0 | 0.0 | 0.00 | 0.00 | 0.00 | 23 | 1007.5 |
| 20260509151042 | 81 | 156 | 0.0 | 0.0 | 0.00 | 0.00 | 0.00 | 24 | 1007.6 |
| 20260509150029 | 80 | 171 | 0.0 | 0.0 | 0.00 | 0.00 | 0.00 | 26 | 1007.7 |
| 20260509145019 | 79 | 191 | 0.0 | 0.0 | 0.00 | 0.00 | 0.00 | 26 | 1007.7 |
| 20260509144041 | 78 | 133 | 0.0 | 0.9 | 0.00 | 0.00 | 0.00 | 27 | 1007.7 |
| 20260509143030 | 77 | 179 | 0.0 | 0.0 | 0.00 | 0.00 | 0.00 | 28 | 1007.7 |
| 20260509142020 | 76 | 0.0 | 0.0 | 0.00 | 0.00 | 0.00 | 30 | 1007.7 | |
| 20260509141028 | 75 | 0.0 | 0.0 | 0.00 | 0.00 | 0.00 | 31 | 1007.6 | |
| 20260509140026 | 74 | 0.0 | 0.0 | 0.00 | 0.00 | 0.00 | 32 | 1007.6 | |
| 20260509135023 | 73 | 0.0 | 0.0 | 0.00 | 0.00 | 0.00 | 33 | 1007.4 | |
| 20260509134020 | 72 | 0.0 | 0.0 | 0.00 | 0.00 | 0.00 | 33 | 1007.3 | |
| 20260509133019 | 71 | 0.0 | 0.0 | 0.00 | 0.00 | 0.00 | 33 | 1007.3 | |
| 20260509132023 | 70 | 0.0 | 0.0 | 0.00 | 0.00 | 0.00 | 34 | 1007.2 | |
| 20260509131052 | 70 | 0.0 | 0.0 | 0.00 | 0.00 | 0.00 | 34 | 1007.1 | |
| 20260509130028 | 70 | 0.0 | 0.0 | 0.00 | 0.00 | 0.00 | 34 | 1007.0 | |
| 20260509125043 | 70 | 0.0 | 0.0 | 0.00 | 0.00 | 0.00 | 33 | 1006.8 | |
| 20260509124019 | 70 | 0.0 | 0.0 | 0.00 | 0.00 | 0.00 | 33 | 1006.8 | |
| 20260509123041 | 71 | 0.0 | 0.0 | 0.00 | 0.00 | 0.00 | 33 | 1006.7 | |
| 20260509122021 | 71 | 0.0 | 0.0 | 0.00 | 0.00 | 0.00 | 32 | 1006.6 | |
| 20260509121024 | 71 | 0.0 | 0.0 | 0.00 | 0.00 | 0.00 | 32 | 1006.5 | |
| 20260509120040 | 71 | 0.0 | 0.0 | 0.00 | 0.00 | 0.00 | 31 | 1006.5 | |
| 20260509115104 | 71 | 0.0 | 0.0 | 0.00 | 0.00 | 0.00 | 31 | 1006.5 | |
| 20260509114033 | 72 | 0.0 | 0.0 | 0.00 | 0.00 | 0.00 | 31 | 1006.5 | |
| 20260509113023 | 72 | 0.0 | 0.0 | 0.00 | 0.00 | 0.00 | 31 | 1006.5 | |
| 20260509112029 | 72 | 0.0 | 0.0 | 0.00 | 0.00 | 0.00 | 31 | 1006.4 | |
| 20260509111036 | 73 | 0.0 | 0.0 | 0.00 | 0.00 | 0.00 | 30 | 1006.4 | |
| 20260509110032 | 73 | 0.0 | 0.0 | 0.00 | 0.00 | 0.00 | 29 | 1006.3 | |
| 20260509105050 | 74 | 0.0 | 0.0 | 0.00 | 0.00 | 0.00 | 28 | 1006.1 | |
| 20260509104020 | 74 | 0.0 | 0.0 | 0.00 | 0.00 | 0.00 | 28 | 1006.1 | |
| 20260509103029 | 74 | 0.0 | 0.0 | 0.00 | 0.00 | 0.00 | 28 | 1006.1 | |
| 20260509102026 | 74 | 0.0 | 0.0 | 0.00 | 0.00 | 0.00 | 28 | 1006.2 | |
| 20260509101023 | 75 | 0.0 | 0.0 | 0.00 | 0.00 | 0.00 | 27 | 1006.1 | |
| 20260509100020 | 75 | 158 | 0.0 | 0.0 | 0.00 | 0.00 | 0.00 | 27 | 1006.1 |
| 20260509095039 | 75 | 0.0 | 0.0 | 0.00 | 0.00 | 0.00 | 27 | 1006.0 | |
| 20260509094023 | 76 | 0.0 | 0.0 | 0.00 | 0.00 | 0.00 | 27 | 1006.0 | |
| 20260509093030 | 76 | 0.0 | 0.0 | 0.00 | 0.00 | 0.00 | 26 | 1006.1 | |
| 20260509092024 | 76 | 0.0 | 0.0 | 0.00 | 0.00 | 0.00 | 25 | 1006.1 | |
| 20260509091021 | 76 | 0.0 | 0.0 | 0.00 | 0.00 | 0.00 | 25 | 1006.1 | |
| 20260509090036 | 76 | 0.0 | 0.0 | 0.00 | 0.00 | 0.00 | 25 | 1006.1 | |
| 20260509085020 | 77 | 0.0 | 0.0 | 0.00 | 0.00 | 0.00 | 25 | 1006.1 | |
| 20260509084029 | 77 | 0.0 | 0.0 | 0.00 | 0.00 | 0.00 | 24 | 1006.3 | |
| 20260509083052 | 77 | 0.0 | 0.0 | 0.00 | 0.00 | 0.00 | 24 | 1006.1 | |
| 20260509082043 | 78 | 0.0 | 0.0 | 0.00 | 0.00 | 0.00 | 24 | 1006.1 | |
| 20260509081035 | 78 | 0.0 | 0.0 | 0.00 | 0.00 | 0.00 | 24 | 1006.1 | |
| 20260509080039 | 78 | 0.0 | 0.0 | 0.00 | 0.00 | 0.00 | 23 | 1006.3 | |
| 20260509075024 | 79 | 0.0 | 0.0 | 0.00 | 0.00 | 0.00 | 23 | 1006.3 | |
| 20260509074029 | 79 | 0.0 | 0.0 | 0.00 | 0.00 | 0.00 | 23 | 1006.3 | |
| 20260509073037 | 79 | 0.0 | 0.0 | 0.00 | 0.00 | 0.00 | 23 | 1006.3 | |
| 20260509072031 | 80 | 0.0 | 0.0 | 0.00 | 0.00 | 0.00 | 22 | 1006.3 | |
| 20260509071030 | 80 | 0.0 | 0.0 | 0.00 | 0.00 | 0.00 | 22 | 1006.3 | |
| 20260509070020 | 80 | 29 | 0.0 | 0.0 | 0.00 | 0.00 | 0.00 | 22 | |
| 20260509065107 | 81 | 281 | 0.9 | 0.9 | 0.00 | 0.00 | 0.00 | 22 | |
| 20260509064023 | 81 | 248 | 0.0 | 0.0 | 0.00 | 0.00 | 0.00 | 21 | |
| 20260509063024 | 81 | 33 | 0.0 | 0.0 | 0.00 | 0.00 | 0.00 | 21 | |
| 20260509062021 | 81 | 32 | 0.0 | 0.9 | 0.00 | 0.00 | 0.00 | 21 | 1005.9 |
| 20260509061052 | 81 | 17 | 0.0 | 0.9 | 0.00 | 0.00 | 0.00 | 21 | 1005.9 |
| 20260509060024 | 82 | 43 | 0.0 | 0.9 | 0.00 | 0.00 | 0.00 | 21 | 1005.8 |
| 20260509055030 | 82 | 23 | 0.0 | 0.9 | 0.00 | 0.00 | 0.00 | 21 | 1005.7 |
| 20260509054025 | 82 | 26 | 0.0 | 0.0 | 0.00 | 0.00 | 0.00 | 20 | 1005.6 |
| 20260509053042 | 82 | 20 | 0.0 | 0.0 | 0.00 | 0.00 | 0.00 | 20 | 1005.7 |
| 20260509052050 | 83 | 359 | 0.0 | 0.0 | 0.00 | 0.00 | 0.00 | 20 | 1005.7 |
| 20260509051021 | 83 | 29 | 0.0 | 0.9 | 0.00 | 0.00 | 0.00 | 20 | 1005.7 |
| 20260509050026 | 83 | 24 | 0.0 | 0.0 | 0.00 | 0.00 | 0.00 | 20 | 1005.6 |
| 20260509045040 | 84 | 43 | 0.0 | 0.0 | 0.00 | 0.00 | 0.00 | 20 | 1005.5 |
| 20260509044035 | 84 | 0.0 | 0.0 | 0.00 | 0.00 | 0.00 | 20 | 1005.5 | |
| 20260509043040 | 84 | 0.0 | 0.0 | 0.00 | 0.00 | 0.00 | 19 | 1005.4 | |
| 20260509042026 | 85 | 0.0 | 0.0 | 0.00 | 0.00 | 0.00 | 19 | 1005.3 | |
| 20260509041024 | 85 | 0.0 | 0.0 | 0.00 | 0.00 | 0.00 | 19 | 1005.2 |